Time;durP1;ratioP1;P1;durP2;ratioP2;P2;SDS_P1;SDS_P2;PMS_P1;PMS_P2;Temp;Humidity;BMP_temperature;BMP_pressure;BME280_temperature;BME280_humidity;BME280_pressure;Samples;Min_cycle;Max_cycle;Signal;HPM_P1;HPM_P2
2023/08/21 00:02:54;;;;;;;30.52;16.75;;;;;;;;;;6333964;28;20297;-74
2023/08/21 00:05:59;;;;;;;27.08;16.15;;;;;;;;;;6333889;28;20293;-72
2023/08/21 00:09:03;;;;;;;27.60;15.35;;;;;;;;;;6333596;28;20303;-74
2023/08/21 00:12:08;;;;;;;19.65;14.05;;;;;;;;;;6334096;28;20448;-72
2023/08/21 00:15:11;;;;;;;21.85;13.93;;;;;;;;;;6333667;28;20297;-72
2023/08/21 00:18:15;;;;;;;21.85;13.60;;;;;;;;;;6333886;28;20385;-72
2023/08/21 00:21:21;;;;;;;23.52;13.68;;;;;;;;;;6334189;28;20479;-72
2023/08/21 00:24:25;;;;;;;18.60;12.75;;;;;;;;;;6333792;28;20293;-72
2023/08/21 00:27:28;;;;;;;18.83;12.75;;;;;;;;;;6333899;28;20297;-71
2023/08/21 00:30:32;;;;;;;19.90;13.23;;;;;;;;;;6333185;28;20317;-72
2023/08/21 00:33:38;;;;;;;22.90;12.88;;;;;;;;;;6314644;28;20294;-72
2023/08/21 00:36:43;;;;;;;22.45;13.48;;;;;;;;;;6334258;28;20294;-72
2023/08/21 00:39:47;;;;;;;21.00;12.98;;;;;;;;;;6317349;28;20294;-72
2023/08/21 00:42:50;;;;;;;22.65;13.50;;;;;;;;;;6319117;28;20415;-72
2023/08/21 00:45:54;;;;;;;21.02;13.27;;;;;;;;;;6338377;28;20293;-72
2023/08/21 00:48:58;;;;;;;23.13;14.35;;;;;;;;;;6337596;28;20297;-71
2023/08/21 00:52:04;;;;;;;21.38;13.20;;;;;;;;;;6338092;28;20298;-72
2023/08/21 00:55:09;;;;;;;21.13;14.10;;;;;;;;;;6337394;28;20310;-72
2023/08/21 00:58:13;;;;;;;21.35;13.82;;;;;;;;;;6319069;28;20293;-72
2023/08/21 01:01:19;;;;;;;20.95;13.70;;;;;;;;;;6319637;28;20450;-72
2023/08/21 01:04:23;;;;;;;22.90;13.63;;;;;;;;;;6314649;22;20346;-71
2023/08/21 01:07:29;;;;;;;22.27;13.50;;;;;;;;;;6294309;28;20286;-71
2023/08/21 01:10:41;;;;;;;19.33;12.68;;;;;;;;;;6293954;28;20294;-70
2023/08/21 01:13:50;;;;;;;18.35;12.85;;;;;;;;;;6312186;28;20295;-70
2023/08/21 01:16:57;;;;;;;23.27;13.02;;;;;;;;;;6294587;28;20298;-70
2023/08/21 01:20:01;;;;;;;23.88;13.63;;;;;;;;;;6310738;28;20302;-70
2023/08/21 01:23:06;;;;;;;24.08;13.48;;;;;;;;;;6304081;28;20310;-70
2023/08/21 01:26:12;;;;;;;21.58;13.10;;;;;;;;;;6312712;28;20343;-70
2023/08/21 01:29:15;;;;;;;22.65;12.95;;;;;;;;;;6311905;28;20298;-72
2023/08/21 01:32:24;;;;;;;19.98;13.23;;;;;;;;;;6312487;28;20595;-69
2023/08/21 01:35:29;;;;;;;22.48;13.68;;;;;;;;;;6293433;28;20302;-71
2023/08/21 01:38:35;;;;;;;20.05;13.90;;;;;;;;;;6311377;28;20375;-70
2023/08/21 01:41:40;;;;;;;19.05;12.50;;;;;;;;;;6294149;28;20531;-70
2023/08/21 01:44:45;;;;;;;20.05;12.25;;;;;;;;;;6311483;28;20298;-70
2023/08/21 01:47:49;;;;;;;19.08;12.77;;;;;;;;;;6311673;28;20302;-71
2023/08/21 01:50:53;;;;;;;18.50;12.15;;;;;;;;;;6312159;28;20302;-70
2023/08/21 01:53:58;;;;;;;16.70;12.05;;;;;;;;;;6311414;28;20302;-70
2023/08/21 01:57:03;;;;;;;17.75;12.38;;;;;;;;;;6293575;28;20330;-69
2023/08/21 02:00:08;;;;;;;18.65;12.38;;;;;;;;;;6292830;28;20306;-71
2023/08/21 02:03:18;;;;;;;18.85;12.57;;;;;;;;;;6315560;28;20303;-71
2023/08/21 02:06:22;;;;;;;17.88;12.35;;;;;;;;;;6294771;28;20294;-70
2023/08/21 02:09:26;;;;;;;19.45;11.90;;;;;;;;;;6310721;28;20302;-71
2023/08/21 02:12:31;;;;;;;18.60;12.00;;;;;;;;;;6311153;28;20323;-70
2023/08/21 02:15:35;;;;;;;17.60;12.25;;;;;;;;;;6310916;28;20294;-70
2023/08/21 02:18:39;;;;;;;18.23;11.38;;;;;;;;;;6310773;28;20295;-71
2023/08/21 02:21:42;;;;;;;15.18;11.48;;;;;;;;;;6311242;28;20302;-70
2023/08/21 02:24:46;;;;;;;16.88;11.95;;;;;;;;;;6292193;28;20290;-70
2023/08/21 02:27:51;;;;;;;14.30;11.48;;;;;;;;;;6292280;28;20307;-70
2023/08/21 02:30:55;;;;;;;14.75;11.82;;;;;;;;;;6292973;28;20298;-71
2023/08/21 02:33:59;;;;;;;18.15;12.18;;;;;;;;;;6292299;28;20302;-70
2023/08/21 02:37:04;;;;;;;14.02;11.30;;;;;;;;;;6292516;28;20317;-70
2023/08/21 02:40:09;;;;;;;16.02;11.40;;;;;;;;;;6292368;28;20306;-70
2023/08/21 02:43:14;;;;;;;17.20;11.10;;;;;;;;;;6291842;28;20569;-71
2023/08/21 02:46:18;;;;;;;16.52;11.55;;;;;;;;;;6310318;28;20286;-70
2023/08/21 02:49:22;;;;;;;13.85;11.02;;;;;;;;;;6291742;28;20290;-71
2023/08/21 02:52:26;;;;;;;15.90;10.85;;;;;;;;;;6310583;28;20290;-70
2023/08/21 02:55:29;;;;;;;13.73;10.68;;;;;;;;;;6291174;28;20298;-71
2023/08/21 02:58:35;;;;;;;12.73;10.88;;;;;;;;;;6310059;28;20302;-71
2023/08/21 03:01:38;;;;;;;13.35;10.65;;;;;;;;;;6298641;28;20750;-71
2023/08/21 03:04:42;;;;;;;15.02;10.43;;;;;;;;;;6299983;28;20301;-73
2023/08/21 03:07:46;;;;;;;13.68;10.32;;;;;;;;;;6309686;28;20289;-70
2023/08/21 03:10:50;;;;;;;13.35;9.45;;;;;;;;;;6307418;28;20290;-70
2023/08/21 03:13:55;;;;;;;13.05;9.90;;;;;;;;;;6291124;28;20301;-70
2023/08/21 03:16:59;;;;;;;13.10;9.27;;;;;;;;;;6291037;28;20346;-71
2023/08/21 03:20:04;;;;;;;11.68;9.00;;;;;;;;;;6291188;28;20314;-70
2023/08/21 03:23:08;;;;;;;12.18;8.77;;;;;;;;;;6309471;28;20301;-70
2023/08/21 03:26:12;;;;;;;12.55;9.27;;;;;;;;;;6309997;28;20251;-71
2023/08/21 03:29:17;;;;;;;9.38;8.30;;;;;;;;;;6291297;28;20294;-70
2023/08/21 03:32:21;;;;;;;10.63;8.60;;;;;;;;;;6310799;28;20289;-70
2023/08/21 03:35:25;;;;;;;12.07;8.05;;;;;;;;;;6289618;28;20411;-69
2023/08/21 03:38:28;;;;;;;12.82;8.45;;;;;;;;;;6286928;28;20294;-70
2023/08/21 03:41:33;;;;;;;8.82;8.00;;;;;;;;;;6291690;28;20294;-70
2023/08/21 03:44:38;;;;;;;8.18;7.22;;;;;;;;;;6309356;28;20289;-70
2023/08/21 03:47:43;;;;;;;8.25;7.30;;;;;;;;;;6290940;28;20294;-70
2023/08/21 03:50:53;;;;;;;11.05;7.80;;;;;;;;;;6291664;28;20298;-70
2023/08/21 03:53:56;;;;;;;7.28;6.57;;;;;;;;;;6309109;28;20527;-71
2023/08/21 03:57:00;;;;;;;7.95;7.15;;;;;;;;;;6291630;28;20337;-70
2023/08/21 04:00:09;;;;;;;7.40;6.70;;;;;;;;;;6309018;28;20607;-70
2023/08/21 04:03:18;;;;;;;7.95;6.82;;;;;;;;;;6313091;28;20520;-70
2023/08/21 04:06:22;;;;;;;7.05;6.05;;;;;;;;;;6291695;28;20290;-70
2023/08/21 04:09:25;;;;;;;6.90;5.80;;;;;;;;;;6290873;28;20317;-71
2023/08/21 04:12:29;;;;;;;6.55;6.00;;;;;;;;;;6290732;28;20582;-70
2023/08/21 04:15:36;;;;;;;6.90;5.07;;;;;;;;;;6295428;28;20290;-71
2023/08/21 04:18:40;;;;;;;5.68;5.30;;;;;;;;;;6313673;28;20391;-70
2023/08/21 04:21:45;;;;;;;4.85;4.55;;;;;;;;;;6295725;28;20464;-70
2023/08/21 04:24:48;;;;;;;5.00;4.65;;;;;;;;;;6313061;28;20579;-70
2023/08/21 04:27:52;;;;;;;4.95;4.65;;;;;;;;;;6313676;28;20285;-70
2023/08/21 04:30:58;;;;;;;5.25;4.45;;;;;;;;;;6295864;28;20314;-71
2023/08/21 04:34:03;;;;;;;5.63;4.50;;;;;;;;;;6295740;28;20283;-70
2023/08/21 04:37:09;;;;;;;4.55;4.13;;;;;;;;;;6296115;28;20289;-71
2023/08/21 04:40:13;;;;;;;4.82;4.35;;;;;;;;;;6295349;28;20295;-70
2023/08/21 04:43:17;;;;;;;5.10;4.40;;;;;;;;;;6294986;28;20370;-70
2023/08/21 04:46:24;;;;;;;11.80;4.53;;;;;;;;;;6295730;28;20314;-71
2023/08/21 04:49:28;;;;;;;5.47;4.38;;;;;;;;;;6295044;28;20302;-68
2023/08/21 04:52:32;;;;;;;4.03;3.90;;;;;;;;;;6294590;28;20294;-68
2023/08/21 04:55:36;;;;;;;4.10;3.83;;;;;;;;;;6294838;28;20290;-70
2023/08/21 04:58:40;;;;;;;4.13;4.00;;;;;;;;;;6295518;28;20298;-70
2023/08/21 05:01:46;;;;;;;4.00;3.80;;;;;;;;;;6294455;28;20488;-70
2023/08/21 05:04:50;;;;;;;4.25;4.00;;;;;;;;;;6292762;28;20311;-71
2023/08/21 05:07:55;;;;;;;4.35;4.15;;;;;;;;;;6293977;28;20306;-72
2023/08/21 05:11:00;;;;;;;4.68;4.38;;;;;;;;;;6293819;28;20567;-71
2023/08/21 05:14:08;;;;;;;4.65;4.35;;;;;;;;;;6310715;28;20330;-72
2023/08/21 05:17:13;;;;;;;8.98;5.30;;;;;;;;;;6312726;28;20247;-72
2023/08/21 05:20:17;;;;;;;7.55;5.00;;;;;;;;;;6310713;28;20562;-70
2023/08/21 05:23:21;;;;;;;5.68;5.20;;;;;;;;;;6310448;28;20298;-72
2023/08/21 05:26:28;;;;;;;7.20;5.18;;;;;;;;;;6310914;28;20294;-70
2023/08/21 05:29:32;;;;;;;5.85;5.32;;;;;;;;;;6312239;28;20298;-72
2023/08/21 05:32:37;;;;;;;4.80;4.45;;;;;;;;;;6310173;28;20290;-73
2023/08/21 05:35:42;;;;;;;5.05;4.57;;;;;;;;;;6310841;28;20298;-73
2023/08/21 05:38:47;;;;;;;5.20;4.07;;;;;;;;;;6310285;28;20290;-73
2023/08/21 05:41:52;;;;;;;4.07;3.78;;;;;;;;;;6312174;28;20377;-73
2023/08/21 05:44:57;;;;;;;4.93;4.38;;;;;;;;;;6309712;28;20306;-73
2023/08/21 05:48:07;;;;;;;3.90;3.70;;;;;;;;;;6309560;28;20286;-73
2023/08/21 05:51:11;;;;;;;3.85;3.63;;;;;;;;;;6311941;28;20298;-72
2023/08/21 05:54:15;;;;;;;3.90;3.60;;;;;;;;;;6311116;28;20387;-72
2023/08/21 05:57:19;;;;;;;3.95;3.60;;;;;;;;;;6310131;28;20286;-72
2023/08/21 06:00:23;;;;;;;3.85;3.65;;;;;;;;;;6309941;28;20277;-73
2023/08/21 06:03:28;;;;;;;4.85;3.60;;;;;;;;;;6319704;28;20306;-72
2023/08/21 06:06:52;;;;;;;4.25;3.83;;;;;;;;;;6336279;28;20290;-74
2023/08/21 06:09:56;;;;;;;6.20;3.78;;;;;;;;;;6317795;28;20289;-73
2023/08/21 06:13:00;;;;;;;4.13;3.78;;;;;;;;;;6336166;28;20550;-72
2023/08/21 06:16:04;;;;;;;5.38;3.58;;;;;;;;;;6336519;28;20281;-72
2023/08/21 06:19:11;;;;;;;7.82;3.65;;;;;;;;;;6317065;28;20298;-72
2023/08/21 06:22:15;;;;;;;5.53;3.80;;;;;;;;;;6317830;28;20290;-72
2023/08/21 06:25:19;;;;;;;8.27;3.67;;;;;;;;;;6317906;28;20294;-71
2023/08/21 06:28:23;;;;;;;8.23;3.42;;;;;;;;;;6316648;28;20293;-72
2023/08/21 06:31:26;;;;;;;5.35;3.20;;;;;;;;;;6336154;28;20293;-72
2023/08/21 06:34:32;;;;;;;3.47;3.17;;;;;;;;;;6317096;28;20297;-71
2023/08/21 06:37:36;;;;;;;5.68;3.28;;;;;;;;;;6316241;28;20309;-72
2023/08/21 06:40:40;;;;;;;4.05;3.20;;;;;;;;;;6317504;28;20293;-72
2023/08/21 06:43:44;;;;;;;3.45;3.15;;;;;;;;;;6316581;28;20297;-72
2023/08/21 06:46:52;;;;;;;3.80;3.35;;;;;;;;;;6317482;28;20290;-72
2023/08/21 06:49:57;;;;;;;4.00;3.28;;;;;;;;;;6316466;28;20578;-73
2023/08/21 06:53:01;;;;;;;6.65;3.33;;;;;;;;;;6334138;28;20298;-72
2023/08/21 06:56:05;;;;;;;4.50;3.20;;;;;;;;;;6335983;28;20262;-73
2023/08/21 06:59:09;;;;;;;4.45;3.08;;;;;;;;;;6335088;28;20286;-72
2023/08/21 07:02:12;;;;;;;5.82;3.10;;;;;;;;;;6335156;28;20270;-72
2023/08/21 07:05:18;;;;;;;5.05;3.38;;;;;;;;;;6334815;28;20297;-72
2023/08/21 07:08:22;;;;;;;10.57;3.88;;;;;;;;;;6335002;28;20294;-72
2023/08/21 07:11:25;;;;;;;5.50;3.58;;;;;;;;;;6335484;28;20581;-71
2023/08/21 07:14:29;;;;;;;3.75;3.33;;;;;;;;;;6335048;28;20586;-72
2023/08/21 07:17:33;;;;;;;5.28;3.70;;;;;;;;;;6334519;28;20293;-72
2023/08/21 07:20:38;;;;;;;8.40;3.30;;;;;;;;;;6335250;28;20290;-72
2023/08/21 07:23:42;;;;;;;4.78;3.40;;;;;;;;;;6334916;28;20294;-72
2023/08/21 07:26:46;;;;;;;5.63;3.25;;;;;;;;;;6317074;28;20293;-73
2023/08/21 07:29:50;;;;;;;5.40;3.35;;;;;;;;;;6335074;28;20293;-72
2023/08/21 07:32:54;;;;;;;3.78;3.45;;;;;;;;;;6317050;28;20472;-74
2023/08/21 07:36:01;;;;;;;3.83;3.50;;;;;;;;;;6304303;28;20299;-72
2023/08/21 07:39:05;;;;;;;6.10;3.72;;;;;;;;;;6284767;28;20295;-72
2023/08/21 07:42:08;;;;;;;6.78;3.60;;;;;;;;;;6284844;28;20298;-72
2023/08/21 07:45:12;;;;;;;5.50;3.40;;;;;;;;;;6284387;28;20290;-72
2023/08/21 07:48:16;;;;;;;5.40;3.28;;;;;;;;;;6285235;28;20598;-73
2023/08/21 07:51:21;;;;;;;4.30;3.42;;;;;;;;;;6290498;28;20307;-72
2023/08/21 07:54:25;;;;;;;8.50;3.78;;;;;;;;;;6289355;28;20295;-73
2023/08/21 07:57:29;;;;;;;5.35;3.55;;;;;;;;;;6289178;28;20294;-72
2023/08/21 08:00:32;;;;;;;3.88;3.45;;;;;;;;;;6289629;28;20287;-72
2023/08/21 08:03:37;;;;;;;5.00;3.33;;;;;;;;;;6282362;28;20299;-72
2023/08/21 08:06:42;;;;;;;3.20;3.08;;;;;;;;;;6264925;28;20580;-72
2023/08/21 08:09:46;;;;;;;5.93;3.20;;;;;;;;;;6248507;28;20308;-72
2023/08/21 08:12:50;;;;;;;5.00;3.47;;;;;;;;;;6261546;28;20291;-72
2023/08/21 08:15:54;;;;;;;4.90;3.47;;;;;;;;;;6289642;28;20532;-72
2023/08/21 08:18:59;;;;;;;3.60;3.40;;;;;;;;;;6289009;28;20295;-72
2023/08/21 08:22:04;;;;;;;5.78;3.75;;;;;;;;;;6289396;28;20475;-74
2023/08/21 08:25:08;;;;;;;4.57;3.53;;;;;;;;;;6288609;28;20303;-72
2023/08/21 08:28:12;;;;;;;4.45;3.45;;;;;;;;;;6288859;28;20279;-73
2023/08/21 08:31:16;;;;;;;6.03;3.50;;;;;;;;;;6289050;28;20294;-73
2023/08/21 08:34:21;;;;;;;4.00;3.38;;;;;;;;;;6270764;28;20286;-73
2023/08/21 08:37:26;;;;;;;3.65;3.35;;;;;;;;;;6288673;28;20319;-73
2023/08/21 08:40:30;;;;;;;4.70;3.50;;;;;;;;;;6288386;28;20303;-73
2023/08/21 08:43:35;;;;;;;4.13;3.40;;;;;;;;;;6287963;28;20485;-73
2023/08/21 08:46:39;;;;;;;3.90;3.00;;;;;;;;;;6271051;28;20454;-73
2023/08/21 08:49:43;;;;;;;4.35;3.28;;;;;;;;;;6270375;28;20286;-73
2023/08/21 08:52:48;;;;;;;3.50;3.17;;;;;;;;;;6287826;28;20306;-74
2023/08/21 08:55:54;;;;;;;3.58;3.28;;;;;;;;;;6288735;28;20299;-72
2023/08/21 08:58:58;;;;;;;3.22;2.92;;;;;;;;;;6287451;28;20480;-72
2023/08/21 09:02:02;;;;;;;3.85;3.42;;;;;;;;;;6287460;28;20267;-73
2023/08/21 09:05:06;;;;;;;2.80;2.50;;;;;;;;;;6305489;28;20535;-72
2023/08/21 09:08:12;;;;;;;3.15;2.83;;;;;;;;;;6313005;28;20290;-71
2023/08/21 09:11:17;;;;;;;5.97;3.25;;;;;;;;;;6313262;28;20511;-72
2023/08/21 09:14:27;;;;;;;5.95;3.03;;;;;;;;;;6312987;28;20294;-73
2023/08/21 09:17:31;;;;;;;5.60;3.08;;;;;;;;;;6295454;28;20297;-72
2023/08/21 09:20:36;;;;;;;3.30;3.10;;;;;;;;;;6312634;28;20471;-72
2023/08/21 09:23:41;;;;;;;5.05;2.85;;;;;;;;;;6312096;28;20298;-72
2023/08/21 09:26:45;;;;;;;4.88;3.22;;;;;;;;;;6312731;28;20452;-74
2023/08/21 09:29:49;;;;;;;3.08;2.90;;;;;;;;;;6312013;28;20294;-72
2023/08/21 09:32:56;;;;;;;3.65;3.42;;;;;;;;;;6311920;28;20282;-71
2023/08/21 09:36:00;;;;;;;3.83;3.28;;;;;;;;;;6312295;28;20298;-72
2023/08/21 09:39:06;;;;;;;3.67;3.15;;;;;;;;;;6311756;28;20298;-72
2023/08/21 09:42:10;;;;;;;5.32;2.83;;;;;;;;;;6312592;28;20290;-71
2023/08/21 09:45:14;;;;;;;3.90;3.10;;;;;;;;;;6311591;28;20455;-72
2023/08/21 09:48:17;;;;;;;11.82;3.47;;;;;;;;;;6293597;28;20289;-72
2023/08/21 09:51:22;;;;;;;3.28;3.05;;;;;;;;;;6311740;28;20294;-72
2023/08/21 09:54:27;;;;;;;3.75;2.95;;;;;;;;;;6311124;28;20306;-72
2023/08/21 09:57:33;;;;;;;5.60;2.92;;;;;;;;;;6292858;28;20293;-72
2023/08/21 10:00:38;;;;;;;3.60;2.85;;;;;;;;;;6311415;28;20290;-72
2023/08/21 10:03:44;;;;;;;4.10;3.17;;;;;;;;;;6304046;28;20303;-72
2023/08/21 10:06:49;;;;;;;4.90;3.08;;;;;;;;;;6287343;28;20302;-72
2023/08/21 10:09:55;;;;;;;15.15;3.50;;;;;;;;;;6287862;28;20283;-72
2023/08/21 10:12:59;;;;;;;9.15;3.05;;;;;;;;;;6285687;28;20287;-73
2023/08/21 10:16:03;;;;;;;5.78;3.40;;;;;;;;;;6269195;28;20290;-71
2023/08/21 10:19:08;;;;;;;4.85;2.95;;;;;;;;;;6285837;28;20291;-70
2023/08/21 10:22:13;;;;;;;5.72;3.17;;;;;;;;;;6286175;28;20290;-71
2023/08/21 10:25:21;;;;;;;3.20;3.00;;;;;;;;;;6267951;28;20294;-70
2023/08/21 10:28:26;;;;;;;5.07;3.03;;;;;;;;;;6285866;28;20290;-72
2023/08/21 10:31:31;;;;;;;5.20;3.28;;;;;;;;;;6286094;28;20303;-71
2023/08/21 10:34:37;;;;;;;4.70;3.38;;;;;;;;;;6285610;28;20303;-70
2023/08/21 10:38:11;;;;;;;5.45;3.40;;;;;;;;;;6285204;28;20291;-72
2023/08/21 10:41:17;;;;;;;3.95;3.63;;;;;;;;;;6292442;28;20432;-72
2023/08/21 10:44:35;;;;;;;4.28;3.13;;;;;;;;;;6310110;28;20294;-72
2023/08/21 10:47:38;;;;;;;4.40;3.00;;;;;;;;;;6309554;28;20299;-72
2023/08/21 10:50:42;;;;;;;5.30;2.70;;;;;;;;;;6310420;28;20289;-72
2023/08/21 10:53:46;;;;;;;4.05;2.95;;;;;;;;;;6309682;28;20286;-72
2023/08/21 10:56:51;;;;;;;5.13;2.78;;;;;;;;;;6310026;28;20465;-72
2023/08/21 10:59:57;;;;;;;2.45;2.35;;;;;;;;;;6309595;28;20306;-72
2023/08/21 11:03:00;;;;;;;4.15;2.50;;;;;;;;;;6309146;28;20289;-72
2023/08/21 11:06:05;;;;;;;6.25;2.70;;;;;;;;;;6310152;28;20290;-72
2023/08/21 11:09:13;;;;;;;8.82;2.45;;;;;;;;;;6309486;28;20294;-72
2023/08/21 11:12:20;;;;;;;7.43;2.80;;;;;;;;;;6309932;28;20299;-72
2023/08/21 11:15:25;;;;;;;4.10;2.50;;;;;;;;;;6309146;28;20599;-73
2023/08/21 11:18:33;;;;;;;7.82;2.45;;;;;;;;;;6309685;28;20291;-73
2023/08/21 11:21:37;;;;;;;3.67;2.45;;;;;;;;;;6309633;28;20522;-73
2023/08/21 11:24:42;;;;;;;3.78;2.72;;;;;;;;;;6290306;28;20354;-72
2023/08/21 11:27:47;;;;;;;4.53;2.72;;;;;;;;;;6290637;28;20285;-71
2023/08/21 11:30:51;;;;;;;7.18;2.30;;;;;;;;;;6309666;28;20290;-73
2023/08/21 11:33:56;;;;;;;2.60;2.50;;;;;;;;;;6308835;28;20299;-72
2023/08/21 11:37:06;;;;;;;6.30;2.50;;;;;;;;;;6310821;28;20329;-71
2023/08/21 11:40:10;;;;;;;2.50;2.35;;;;;;;;;;6309158;28;20290;-71
2023/08/21 11:43:20;;;;;;;4.15;2.17;;;;;;;;;;6309195;28;20385;-71
2023/08/21 11:46:24;;;;;;;2.55;2.42;;;;;;;;;;6293837;28;20303;-70
2023/08/21 11:49:28;;;;;;;4.82;2.20;;;;;;;;;;6308793;28;20295;-71
2023/08/21 11:52:32;;;;;;;7.45;2.40;;;;;;;;;;6308883;28;20302;-71
2023/08/21 11:55:36;;;;;;;2.53;2.30;;;;;;;;;;6309360;28;20289;-71
2023/08/21 11:58:41;;;;;;;5.07;2.45;;;;;;;;;;6308858;28;20290;-71
2023/08/21 12:01:51;;;;;;;4.78;2.47;;;;;;;;;;6290884;28;20599;-71
2023/08/21 12:04:55;;;;;;;3.95;2.30;;;;;;;;;;6308662;28;20611;-70
2023/08/21 12:07:59;;;;;;;2.67;2.47;;;;;;;;;;6291451;28;20289;-73
2023/08/21 12:11:02;;;;;;;4.43;2.33;;;;;;;;;;6334248;28;20242;-72
2023/08/21 12:14:08;;;;;;;2.35;2.10;;;;;;;;;;6333492;28;20297;-71
2023/08/21 12:17:12;;;;;;;6.50;2.40;;;;;;;;;;6333880;28;20331;-71
2023/08/21 12:20:16;;;;;;;4.03;2.30;;;;;;;;;;6333617;28;20317;-69
2023/08/21 12:23:20;;;;;;;3.95;2.40;;;;;;;;;;6333490;28;20309;-71
2023/08/21 12:26:23;;;;;;;2.70;2.40;;;;;;;;;;6333956;28;20294;-71
2023/08/21 12:29:38;;;;;;;6.85;2.42;;;;;;;;;;6333728;28;20286;-72
2023/08/21 12:32:42;;;;;;;3.55;2.30;;;;;;;;;;6333739;28;20285;-71
2023/08/21 12:35:46;;;;;;;7.22;2.03;;;;;;;;;;6336831;28;20305;-75
2023/08/21 12:38:50;;;;;;;2.38;2.10;;;;;;;;;;6338281;28;20333;-73
2023/08/21 12:41:54;;;;;;;7.85;2.45;;;;;;;;;;6338705;28;20293;-74
2023/08/21 12:44:59;;;;;;;3.45;2.10;;;;;;;;;;6338271;28;20310;-72
2023/08/21 12:48:03;;;;;;;3.75;2.40;;;;;;;;;;6337772;28;20610;-73
2023/08/21 12:51:07;;;;;;;10.10;2.90;;;;;;;;;;6319861;28;20297;-71
2023/08/21 12:54:11;;;;;;;1.75;1.65;;;;;;;;;;6319373;28;20298;-70
2023/08/21 12:57:16;;;;;;;5.10;2.63;;;;;;;;;;6338299;28;20297;-73
2023/08/21 13:00:21;;;;;;;2.53;2.30;;;;;;;;;;6337594;28;20285;-72
2023/08/21 13:03:26;;;;;;;2.13;2.03;;;;;;;;;;6337114;28;20297;-72
2023/08/21 13:06:32;;;;;;;4.25;1.85;;;;;;;;;;6337717;28;20312;-74
2023/08/21 13:09:36;;;;;;;2.40;2.10;;;;;;;;;;6337414;28;20301;-71
2023/08/21 13:12:39;;;;;;;3.75;2.25;;;;;;;;;;6318993;28;20296;-71
2023/08/21 13:15:46;;;;;;;2.40;2.13;;;;;;;;;;6338053;28;20594;-71
2023/08/21 13:18:50;;;;;;;2.88;1.92;;;;;;;;;;6336796;28;20589;-71
2023/08/21 13:21:54;;;;;;;7.35;2.60;;;;;;;;;;6337766;28;20290;-72
2023/08/21 13:24:58;;;;;;;3.28;1.80;;;;;;;;;;6337120;28;20466;-72
2023/08/21 13:28:03;;;;;;;2.75;1.92;;;;;;;;;;6337081;28;20297;-73
2023/08/21 13:31:10;;;;;;;3.22;2.20;;;;;;;;;;6338128;28;20298;-71
2023/08/21 13:34:14;;;;;;;4.30;2.20;;;;;;;;;;6337547;28;20357;-71
2023/08/21 13:37:18;;;;;;;6.30;2.22;;;;;;;;;;6337276;28;20484;-72
2023/08/21 13:40:22;;;;;;;4.78;1.90;;;;;;;;;;6336720;28;20313;-72
2023/08/21 13:43:26;;;;;;;3.08;2.03;;;;;;;;;;6336480;28;20433;-72
2023/08/21 13:46:37;;;;;;;8.38;2.30;;;;;;;;;;6318726;28;20438;-73
2023/08/21 13:49:40;;;;;;;4.80;2.30;;;;;;;;;;6336558;28;20293;-73
2023/08/21 13:52:47;;;;;;;1.88;1.77;;;;;;;;;;6336158;28;20298;-74
2023/08/21 13:55:51;;;;;;;2.28;1.95;;;;;;;;;;6336698;28;20303;-72
2023/08/21 13:58:55;;;;;;;5.72;2.08;;;;;;;;;;6336816;28;20605;-71
2023/08/21 14:02:00;;;;;;;5.65;2.30;;;;;;;;;;6335445;28;20274;-71
2023/08/21 14:05:05;;;;;;;6.38;2.65;;;;;;;;;;6335673;28;20301;-72
2023/08/21 14:08:09;;;;;;;2.08;2.00;;;;;;;;;;6334795;28;20301;-71
2023/08/21 14:11:13;;;;;;;4.70;2.03;;;;;;;;;;6300931;28;20435;-72
2023/08/21 14:14:17;;;;;;;5.53;2.10;;;;;;;;;;6333147;28;20293;-72
2023/08/21 14:17:22;;;;;;;2.63;2.00;;;;;;;;;;6314231;28;20289;-72
2023/08/21 14:20:26;;;;;;;2.67;1.92;;;;;;;;;;6331898;28;20302;-73
2023/08/21 14:23:29;;;;;;;2.03;1.92;;;;;;;;;;6314597;28;20294;-72
2023/08/21 14:26:36;;;;;;;4.40;1.70;;;;;;;;;;6331016;28;20294;-73
2023/08/21 14:29:40;;;;;;;3.40;2.03;;;;;;;;;;6316140;28;20300;-73
2023/08/21 14:32:45;;;;;;;4.35;2.30;;;;;;;;;;6329119;28;20293;-73
2023/08/21 14:35:50;;;;;;;3.15;1.92;;;;;;;;;;6332831;28;20290;-72
2023/08/21 14:38:54;;;;;;;2.42;2.20;;;;;;;;;;6327582;28;20314;-73
2023/08/21 14:41:58;;;;;;;7.38;2.25;;;;;;;;;;6318900;28;20302;-72
2023/08/21 14:45:02;;;;;;;3.85;2.25;;;;;;;;;;6325887;28;20298;-72
2023/08/21 14:48:07;;;;;;;1.90;1.80;;;;;;;;;;6318808;28;20294;-72
2023/08/21 14:51:11;;;;;;;2.15;1.42;;;;;;;;;;6324935;28;20286;-72
2023/08/21 14:54:15;;;;;;;1.52;1.52;;;;;;;;;;6320280;28;20444;-72
2023/08/21 14:57:19;;;;;;;1.70;1.55;;;;;;;;;;6324268;28;20388;-72
2023/08/21 15:00:22;;;;;;;3.45;1.40;;;;;;;;;;6291347;28;20287;-69
2023/08/21 15:03:28;;;;;;;5.95;1.60;;;;;;;;;;6321065;28;20594;-70
2023/08/21 15:06:32;;;;;;;3.50;1.50;;;;;;;;;;6321827;28;20290;-72
2023/08/21 15:09:36;;;;;;;3.53;1.55;;;;;;;;;;6321134;28;20294;-72
2023/08/21 15:12:41;;;;;;;1.48;1.35;;;;;;;;;;6309661;28;20293;-71
2023/08/21 15:15:45;;;;;;;1.50;1.40;;;;;;;;;;6324589;28;20297;-71
2023/08/21 15:18:52;;;;;;;3.22;1.52;;;;;;;;;;6318489;28;20297;-72
2023/08/21 15:21:55;;;;;;;4.65;2.05;;;;;;;;;;6325879;28;20319;-78
2023/08/21 15:24:59;;;;;;;6.43;1.33;;;;;;;;;;6317022;28;20290;-71
2023/08/21 15:28:03;;;;;;;2.10;1.55;;;;;;;;;;6326448;28;20289;-72
2023/08/21 15:31:08;;;;;;;8.27;2.40;;;;;;;;;;6316576;28;20294;-71
2023/08/21 15:34:13;;;;;;;1.67;1.42;;;;;;;;;;6327506;28;20289;-72
2023/08/21 15:37:17;;;;;;;1.63;1.52;;;;;;;;;;6314833;28;20302;-71
2023/08/21 15:40:21;;;;;;;2.47;1.50;;;;;;;;;;6328884;28;20293;-69
2023/08/21 15:43:25;;;;;;;4.43;1.88;;;;;;;;;;6313207;28;20476;-70
2023/08/21 15:46:29;;;;;;;4.35;1.50;;;;;;;;;;6330418;28;20293;-72
2023/08/21 15:49:36;;;;;;;2.30;1.88;;;;;;;;;;6311745;28;20294;-72
2023/08/21 15:52:40;;;;;;;4.75;1.63;;;;;;;;;;6331527;28;20302;-73
2023/08/21 15:55:45;;;;;;;2.95;1.40;;;;;;;;;;6311270;28;20301;-72
2023/08/21 15:58:51;;;;;;;3.10;1.67;;;;;;;;;;6289921;28;20298;-72
2023/08/21 16:01:55;;;;;;;1.35;1.35;;;;;;;;;;6333899;28;20285;-72
2023/08/21 16:05:00;;;;;;;1.63;1.50;;;;;;;;;;6285001;28;20307;-73
2023/08/21 16:08:04;;;;;;;1.73;1.60;;;;;;;;;;6308167;28;20294;-72
2023/08/21 16:11:08;;;;;;;2.47;1.70;;;;;;;;;;6301873;28;20251;-72
2023/08/21 16:14:13;;;;;;;4.10;1.95;;;;;;;;;;6313358;28;20294;-72
2023/08/21 16:17:17;;;;;;;4.28;1.85;;;;;;;;;;6315309;28;20239;-71
2023/08/21 16:20:24;;;;;;;6.80;2.03;;;;;;;;;;6313797;28;20382;-72
2023/08/21 16:23:27;;;;;;;1.63;1.52;;;;;;;;;;6314320;28;20290;-71
2023/08/21 16:26:32;;;;;;;2.05;1.65;;;;;;;;;;6314059;28;20554;-72
2023/08/21 16:29:36;;;;;;;4.82;2.10;;;;;;;;;;6313358;28;20290;-73
2023/08/21 16:32:40;;;;;;;5.43;1.90;;;;;;;;;;6313100;28;20503;-72
2023/08/21 16:35:45;;;;;;;8.57;2.40;;;;;;;;;;6313601;28;20286;-71
2023/08/21 16:38:49;;;;;;;2.17;1.90;;;;;;;;;;6313149;28;20294;-71
2023/08/21 16:41:53;;;;;;;4.25;1.80;;;;;;;;;;6313584;28;20606;-71
2023/08/21 16:44:57;;;;;;;2.50;1.92;;;;;;;;;;6312849;28;20418;-71
2023/08/21 16:48:01;;;;;;;2.35;2.15;;;;;;;;;;6312678;28;20310;-70
2023/08/21 16:51:06;;;;;;;1.75;1.60;;;;;;;;;;6313461;28;20303;-69
2023/08/21 16:54:10;;;;;;;2.35;1.85;;;;;;;;;;6312756;28;20298;-70
2023/08/21 16:57:14;;;;;;;5.25;2.08;;;;;;;;;;6312958;28;20567;-72
2023/08/21 17:00:18;;;;;;;1.95;1.75;;;;;;;;;;6312654;28;20294;-70
2023/08/21 17:03:24;;;;;;;8.48;1.88;;;;;;;;;;6315842;28;20491;-73
2023/08/21 17:06:29;;;;;;;6.97;1.80;;;;;;;;;;6338300;28;20294;-72
2023/08/21 17:09:36;;;;;;;5.45;1.70;;;;;;;;;;6335836;28;20301;-74
2023/08/21 17:12:40;;;;;;;5.10;1.55;;;;;;;;;;6326807;28;20531;-72
2023/08/21 17:15:44;;;;;;;1.50;1.48;;;;;;;;;;6319171;28;20297;-72
2023/08/21 17:18:48;;;;;;;2.00;1.77;;;;;;;;;;6336814;28;20294;-70
2023/08/21 17:21:53;;;;;;;9.77;2.00;;;;;;;;;;6336766;28;20337;-73
2023/08/21 17:24:59;;;;;;;5.18;1.95;;;;;;;;;;6336157;28;20321;-72
2023/08/21 17:28:17;;;;;;;2.00;1.80;;;;;;;;;;6336753;28;20290;-71
2023/08/21 17:31:21;;;;;;;4.90;1.88;;;;;;;;;;6337119;28;20297;-71
2023/08/21 17:34:25;;;;;;;48.80;2.97;;;;;;;;;;6336537;28;20289;-71
2023/08/21 17:37:30;;;;;;;1.42;1.42;;;;;;;;;;6337397;28;20306;-73
2023/08/21 17:40:34;;;;;;;3.90;1.67;;;;;;;;;;6336554;28;20289;-72
2023/08/21 17:43:38;;;;;;;2.42;1.30;;;;;;;;;;6336093;28;20297;-73
2023/08/21 17:46:42;;;;;;;5.55;1.65;;;;;;;;;;6337332;28;20301;-73
2023/08/21 17:49:45;;;;;;;1.80;1.70;;;;;;;;;;6336340;28;20309;-70
2023/08/21 17:52:51;;;;;;;8.65;1.70;;;;;;;;;;6335786;28;20305;-71
2023/08/21 17:55:55;;;;;;;6.35;1.90;;;;;;;;;;6336664;28;20305;-72
2023/08/21 17:58:59;;;;;;;11.25;2.83;;;;;;;;;;6315710;28;20301;-73
2023/08/21 18:02:03;;;;;;;10.48;2.65;;;;;;;;;;6336480;28;20247;-72
2023/08/21 18:05:08;;;;;;;14.40;3.53;;;;;;;;;;6335494;28;20322;-76
2023/08/21 18:08:14;;;;;;;3.42;3.13;;;;;;;;;;6335535;28;20598;-71
2023/08/21 18:11:18;;;;;;;3.85;2.50;;;;;;;;;;6320355;28;20255;-73
2023/08/21 18:14:22;;;;;;;18.25;3.00;;;;;;;;;;6310374;28;20299;-73
2023/08/21 18:17:25;;;;;;;5.43;2.17;;;;;;;;;;6310698;28;20294;-72
2023/08/21 18:20:50;;;;;;;4.82;2.38;;;;;;;;;;6310428;28;20381;-74
2023/08/21 18:23:56;;;;;;;6.80;2.47;;;;;;;;;;6310829;28;20298;-76